Terminal Aerodrome Forecast
Issued by NWS

Home | Current Version | Previous Version | Text Only | Print | Product List | Glossary On
Versions: 1 2 3 4 5 6 7 8 9 10 11 12
059
FTUS45 KREV 290520
TAFMMH
TAF
KMMH 290520Z 2906/3006 VRB04KT P6SM SCT200
     FM291900 11006KT P6SM FEW100 BKN200
     FM300000 27010KT P6SM SCT080 BKN180=

USA.gov is the U.S. government's official web portal to all federal, state and local government web resources and services.